createdAt,value
2023-05-10T00:00:49.645Z,15.32
2023-05-10T00:01:51.821Z,14.15
2023-05-10T00:02:53.888Z,14.77
2023-05-10T00:03:56.066Z,15.10
2023-05-10T00:04:59.422Z,15.90
2023-05-10T00:06:01.496Z,14.90
2023-05-10T00:07:03.606Z,15.32
2023-05-10T00:08:05.820Z,16.08
2023-05-10T00:09:07.953Z,16.15
2023-05-10T00:10:10.505Z,16.35
2023-05-10T00:11:12.557Z,17.10
2023-05-10T00:12:14.627Z,16.13
2023-05-10T00:13:16.899Z,17.10
2023-05-10T00:14:19.367Z,16.83
2023-05-10T00:15:21.371Z,16.50
2023-05-10T00:16:23.557Z,16.60
2023-05-10T00:17:25.662Z,16.40
2023-05-10T00:18:27.688Z,16.50
2023-05-10T00:19:29.646Z,16.08
2023-05-10T00:20:31.622Z,16.50
2023-05-10T00:21:34.796Z,15.80
2023-05-10T00:22:36.736Z,16.02
2023-05-10T00:23:38.823Z,15.60
2023-05-10T00:24:41.023Z,15.48
2023-05-10T00:25:42.994Z,15.70
2023-05-10T00:26:45.073Z,15.47
2023-05-10T00:27:47.092Z,15.48
2023-05-10T00:28:49.061Z,14.55
2023-05-10T00:29:51.033Z,14.88
2023-05-10T00:30:53.019Z,14.90
2023-05-10T00:31:55.089Z,15.75
2023-05-10T00:32:57.227Z,15.65
2023-05-10T00:33:59.371Z,15.02
2023-05-10T00:35:01.664Z,15.60
2023-05-10T00:36:03.894Z,15.75
2023-05-10T00:37:05.928Z,15.13
2023-05-10T00:38:09.559Z,15.20
2023-05-10T00:39:11.820Z,16.40
2023-05-10T00:40:14.857Z,16.15
2023-05-10T00:41:20.206Z,15.52
2023-05-10T00:42:23.270Z,15.55
2023-05-10T00:43:27.333Z,15.65
2023-05-10T00:44:29.529Z,15.23
2023-05-10T00:45:33.803Z,15.02
2023-05-10T00:46:36.194Z,15.15
2023-05-10T00:47:38.679Z,15.67
2023-05-10T00:48:41.061Z,15.43
2023-05-10T00:49:43.504Z,15.95
2023-05-10T00:50:46.872Z,16.58
2023-05-10T00:51:49.405Z,16.20
2023-05-10T00:52:51.691Z,16.30
2023-05-10T00:53:53.971Z,16.67
2023-05-10T00:54:56.238Z,16.20
2023-05-10T00:55:58.429Z,16.48
2023-05-10T00:57:00.498Z,15.73
2023-05-10T00:58:02.938Z,16.20
2023-05-10T00:59:05.082Z,15.73
2023-05-10T01:00:08.018Z,16.30
2023-05-10T01:01:13.749Z,16.23
2023-05-10T01:02:16.204Z,16.73
2023-05-10T01:03:18.411Z,15.73
2023-05-10T01:04:26.589Z,16.48
2023-05-10T01:05:28.976Z,16.75
2023-05-10T01:06:34.433Z,17.15
2023-05-10T01:09:53.528Z,15.90
2023-05-10T01:10:56.315Z,16.38
2023-05-10T01:11:58.532Z,15.45
2023-05-10T01:13:01.477Z,15.45
2023-05-10T01:14:04.274Z,16.05
2023-05-10T01:15:11.084Z,17.00
2023-05-10T01:16:13.614Z,16.38
2023-05-10T01:17:17.268Z,16.77
2023-05-10T01:18:21.714Z,17.13
2023-05-10T01:19:27.230Z,17.02
2023-05-10T01:20:36.161Z,17.17
2023-05-10T01:22:08.081Z,16.75
2023-05-10T01:23:47.275Z,16.15
2023-05-10T01:24:52.556Z,16.35
2023-05-10T01:26:22.322Z,15.93
2023-05-10T01:27:49.676Z,15.27
2023-05-10T01:29:20.357Z,15.30
2023-05-10T01:31:07.599Z,15.00
2023-05-10T01:32:21.376Z,13.27
2023-05-10T01:34:01.581Z,14.45
2023-05-10T01:35:38.823Z,14.97
2023-05-10T01:36:52.299Z,15.32
2023-05-10T01:38:40.168Z,16.17
2023-05-10T01:40:09.325Z,15.98
2023-05-10T01:41:17.542Z,15.18
2023-05-10T01:42:24.263Z,16.10
2023-05-10T01:43:38.254Z,16.17
2023-05-10T01:44:44.034Z,15.77
2023-05-10T01:45:56.794Z,16.75
2023-05-10T01:47:08.600Z,16.35
2023-05-10T01:48:12.397Z,16.37
2023-05-10T01:49:27.677Z,16.70
2023-05-10T01:50:31.819Z,16.63
2023-05-10T01:51:47.393Z,17.10
2023-05-10T01:52:55.707Z,15.18
2023-05-10T01:54:04.712Z,15.57
2023-05-10T01:55:10.242Z,14.82
2023-05-10T01:56:13.965Z,16.23
2023-05-10T01:57:17.683Z,15.13
2023-05-10T01:58:29.299Z,16.23
2023-05-10T01:59:37.572Z,15.70
2023-05-10T02:00:44.213Z,16.08
2023-05-10T02:01:48.179Z,16.05
2023-05-10T02:02:51.883Z,15.60
2023-05-10T02:03:56.357Z,15.80
2023-05-10T02:05:00.388Z,15.73
2023-05-10T02:06:04.591Z,15.63
2023-05-10T02:07:08.923Z,14.77
2023-05-10T02:08:11.937Z,15.10
2023-05-10T02:09:16.157Z,14.05
2023-05-10T02:10:19.600Z,14.27
2023-05-10T02:11:24.230Z,14.45
2023-05-10T02:12:28.269Z,14.02
2023-05-10T02:13:33.696Z,15.00
2023-05-10T02:14:37.980Z,14.52
2023-05-10T02:15:41.180Z,13.82
2023-05-10T02:16:44.185Z,14.10
2023-05-10T02:17:48.354Z,14.43
2023-05-10T02:18:52.448Z,14.00
2023-05-10T02:19:56.339Z,14.52
2023-05-10T02:20:59.977Z,14.67
2023-05-10T02:22:03.573Z,14.80
2023-05-10T02:23:06.290Z,15.25
2023-05-10T02:24:10.416Z,15.50
2023-05-10T02:25:15.049Z,15.32
2023-05-10T02:26:19.776Z,15.77
2023-05-10T02:27:24.078Z,15.90
2023-05-10T02:28:27.952Z,15.90
2023-05-10T02:29:32.360Z,16.05
2023-05-10T02:30:36.904Z,16.38
2023-05-10T02:31:40.021Z,17.40
2023-05-10T02:32:43.429Z,17.10
2023-05-10T02:33:46.644Z,16.92
2023-05-10T02:34:52.950Z,15.88
2023-05-10T02:35:56.837Z,16.75
2023-05-10T02:37:00.629Z,15.65
2023-05-10T02:38:03.247Z,15.40
2023-05-10T02:39:10.454Z,15.40
2023-05-10T02:40:14.021Z,15.00
2023-05-10T02:41:16.400Z,15.95
2023-05-10T02:42:20.950Z,15.70
2023-05-10T02:43:25.748Z,16.50
2023-05-10T02:44:32.166Z,16.73
2023-05-10T02:45:39.889Z,16.63
2023-05-10T02:46:42.411Z,17.55
2023-05-10T02:47:44.941Z,15.98
2023-05-10T02:48:47.245Z,16.52
2023-05-10T02:49:49.566Z,15.68
2023-05-10T02:50:54.178Z,16.80
2023-05-10T02:52:03.428Z,15.93
2023-05-10T02:53:11.696Z,15.67
2023-05-10T02:54:28.558Z,14.85
2023-05-10T02:55:36.669Z,14.98
2023-05-10T02:57:04.144Z,15.82
2023-05-10T02:58:06.527Z,14.35
2023-05-10T02:59:08.720Z,14.15
2023-05-10T03:00:11.279Z,14.38
2023-05-10T03:01:13.360Z,13.48
2023-05-10T03:02:15.581Z,13.52
2023-05-10T03:03:17.727Z,14.73
2023-05-10T03:04:19.972Z,14.23
2023-05-10T03:05:22.455Z,13.80
2023-05-10T03:06:24.783Z,13.95
2023-05-10T03:07:26.981Z,14.70
2023-05-10T03:08:30.535Z,15.02
2023-05-10T03:09:34.227Z,15.10
2023-05-10T03:10:45.343Z,15.25
2023-05-10T03:12:12.169Z,14.90
2023-05-10T03:13:36.507Z,14.18
2023-05-10T03:15:08.413Z,14.88
2023-05-10T03:16:16.755Z,14.37
2023-05-10T03:17:53.727Z,15.07
2023-05-10T03:19:04.819Z,15.10
2023-05-10T03:20:18.916Z,15.05
2023-05-10T03:21:27.138Z,14.63
2023-05-10T03:22:37.428Z,14.95
2023-05-10T03:23:52.270Z,15.20
2023-05-10T03:24:58.592Z,14.68
2023-05-10T03:26:05.678Z,14.65
2023-05-10T03:27:09.287Z,15.13
2023-05-10T03:28:12.605Z,14.73
2023-05-10T03:29:16.034Z,14.52
2023-05-10T03:30:19.846Z,14.90
2023-05-10T03:31:22.583Z,14.80
2023-05-10T03:32:24.964Z,13.90
2023-05-10T03:33:27.153Z,14.02
2023-05-10T03:34:32.457Z,14.82
2023-05-10T03:35:34.649Z,14.75
2023-05-10T03:36:37.209Z,14.32
2023-05-10T03:37:39.297Z,14.70
2023-05-10T03:38:41.651Z,14.40
2023-05-10T03:39:43.737Z,14.32
2023-05-10T03:40:46.148Z,14.23
2023-05-10T03:41:48.313Z,14.65
2023-05-10T03:42:50.407Z,14.48
2023-05-10T03:43:53.066Z,15.30
2023-05-10T03:44:55.293Z,14.85
2023-05-10T03:45:57.456Z,14.60
2023-05-10T03:46:59.729Z,15.00
2023-05-10T03:48:01.995Z,14.05
2023-05-10T03:49:04.163Z,14.90
2023-05-10T03:50:06.946Z,14.52
2023-05-10T03:51:08.930Z,14.25
2023-05-10T03:52:11.102Z,14.02
2023-05-10T03:53:13.502Z,14.77
2023-05-10T03:54:15.957Z,14.52
2023-05-10T03:55:18.152Z,14.82
2023-05-10T03:56:21.780Z,15.18
2023-05-10T03:57:23.896Z,14.93
2023-05-10T03:58:26.068Z,14.55
2023-05-10T03:59:28.298Z,15.37
2023-05-10T04:00:31.203Z,14.85
2023-05-10T04:01:33.217Z,15.00
2023-05-10T04:02:35.784Z,15.70
2023-05-10T04:03:38.007Z,15.15
2023-05-10T04:04:41.175Z,14.88
2023-05-10T04:05:43.319Z,15.45
2023-05-10T04:06:46.216Z,15.43
2023-05-10T04:07:50.304Z,15.70
2023-05-10T04:08:52.371Z,15.23
2023-05-10T04:09:54.551Z,15.43
2023-05-10T04:11:11.529Z,15.63
2023-05-10T04:12:13.744Z,15.88
2023-05-10T04:13:18.808Z,16.08
2023-05-10T04:14:20.904Z,15.90
2023-05-10T04:15:23.271Z,15.80
2023-05-10T04:16:25.434Z,15.98
2023-05-10T04:17:27.489Z,15.25
2023-05-10T04:18:29.808Z,15.60
2023-05-10T04:19:32.289Z,15.05
2023-05-10T04:20:34.745Z,15.23
2023-05-10T04:21:37.596Z,15.65
2023-05-10T04:22:39.886Z,15.75
2023-05-10T04:23:42.422Z,15.20
2023-05-10T04:24:44.362Z,14.85
2023-05-10T04:25:46.415Z,15.07
2023-05-10T04:26:48.497Z,15.30
2023-05-10T04:27:50.485Z,14.95
2023-05-10T04:28:52.508Z,14.43
2023-05-10T04:29:54.565Z,14.80
2023-05-10T04:31:07.389Z,14.27
2023-05-10T04:32:11.166Z,14.90
2023-05-10T04:33:13.257Z,15.10
2023-05-10T04:34:15.369Z,15.07
2023-05-10T04:35:17.548Z,15.15
2023-05-10T04:36:19.921Z,14.38
2023-05-10T04:37:24.017Z,14.20
2023-05-10T04:38:26.296Z,14.77
2023-05-10T04:39:28.309Z,15.75
2023-05-10T04:40:30.395Z,14.45
2023-05-10T04:41:32.530Z,15.57
2023-05-10T04:42:34.567Z,15.48
2023-05-10T04:43:37.460Z,15.60
2023-05-10T04:44:39.968Z,15.20
2023-05-10T04:45:41.967Z,15.35
2023-05-10T04:46:43.994Z,15.77
2023-05-10T04:47:46.075Z,15.65
2023-05-10T04:48:48.207Z,14.95
2023-05-10T04:49:50.452Z,15.45
2023-05-10T04:50:52.566Z,15.43
2023-05-10T04:51:54.571Z,15.20
2023-05-10T04:52:56.576Z,15.77
2023-05-10T04:54:06.143Z,14.55
2023-05-10T04:55:10.909Z,14.38
2023-05-10T04:56:13.052Z,14.48
2023-05-10T04:57:15.113Z,13.70
2023-05-10T04:58:17.199Z,14.18
2023-05-10T04:59:19.245Z,14.95
2023-05-10T05:00:21.477Z,14.05
2023-05-10T05:01:27.248Z,14.38
2023-05-10T05:02:29.329Z,15.00
2023-05-10T05:03:31.566Z,14.35
2023-05-10T05:04:33.791Z,15.30
2023-05-10T05:05:35.835Z,14.43
2023-05-10T05:06:38.030Z,14.18
2023-05-10T05:07:40.406Z,13.98
2023-05-10T05:08:42.439Z,13.82
2023-05-10T05:09:44.532Z,13.88
2023-05-10T05:10:46.583Z,13.63
2023-05-10T05:11:48.601Z,13.45
2023-05-10T05:12:50.894Z,14.63
2023-05-10T05:13:52.999Z,14.00
2023-05-10T05:14:54.994Z,14.02
2023-05-10T05:15:57.143Z,13.90
2023-05-10T05:16:59.636Z,15.50
2023-05-10T05:18:01.691Z,14.07
2023-05-10T05:19:03.710Z,15.35
2023-05-10T05:20:06.495Z,14.18
2023-05-10T05:21:16.348Z,13.98
2023-05-10T05:22:19.772Z,15.10
2023-05-10T05:23:25.815Z,15.27
2023-05-10T05:24:27.938Z,13.85
2023-05-10T05:25:30.097Z,14.68
2023-05-10T05:26:32.186Z,14.32
2023-05-10T05:27:34.264Z,14.13
2023-05-10T05:28:38.381Z,13.45
2023-05-10T05:29:40.495Z,15.07
2023-05-10T05:30:42.698Z,13.60
2023-05-10T05:31:44.778Z,14.85
2023-05-10T05:32:48.244Z,14.38
2023-05-10T05:33:50.383Z,14.77
2023-05-10T05:34:52.789Z,14.35
2023-05-10T05:35:54.920Z,14.38
2023-05-10T05:36:56.953Z,14.73
2023-05-10T05:37:59.053Z,14.50
2023-05-10T05:39:01.179Z,14.40
2023-05-10T05:40:03.659Z,14.57
2023-05-10T05:41:06.074Z,15.32
2023-05-10T05:42:08.181Z,14.18
2023-05-10T05:43:10.212Z,14.52
2023-05-10T05:44:12.326Z,14.20
2023-05-10T05:45:14.779Z,14.50
2023-05-10T05:46:17.043Z,14.32
2023-05-10T05:47:19.159Z,14.05
2023-05-10T05:48:21.324Z,14.50
2023-05-10T05:49:23.362Z,14.57
2023-05-10T05:50:25.355Z,15.05
2023-05-10T05:51:27.373Z,14.30
2023-05-10T05:52:29.411Z,14.80
2023-05-10T05:53:31.498Z,14.90
2023-05-10T05:54:33.567Z,14.10
2023-05-10T05:55:35.727Z,14.32
2023-05-10T05:56:38.543Z,15.10
2023-05-10T05:57:41.057Z,14.00
2023-05-10T05:58:43.075Z,14.52
2023-05-10T05:59:45.534Z,14.85
2023-05-10T06:00:47.569Z,14.73
2023-05-10T06:01:50.106Z,14.10
2023-05-10T06:02:52.306Z,14.25
2023-05-10T06:03:54.483Z,13.50
2023-05-10T06:04:56.532Z,13.80
2023-05-10T06:05:58.566Z,14.27
2023-05-10T06:07:00.680Z,14.05
2023-05-10T06:08:02.755Z,13.88
2023-05-10T06:09:05.137Z,13.73
2023-05-10T06:10:07.954Z,13.82
2023-05-10T06:11:10.085Z,13.40
2023-05-10T06:12:12.880Z,13.32
2023-05-10T06:13:15.020Z,12.73
2023-05-10T06:14:17.060Z,13.75
2023-05-10T06:15:19.540Z,14.27
2023-05-10T06:16:21.955Z,13.77
2023-05-10T06:17:24.096Z,13.38
2023-05-10T06:18:26.693Z,13.27
2023-05-10T06:19:28.759Z,14.07
2023-05-10T06:20:32.649Z,14.30
2023-05-10T06:21:34.856Z,13.45
2023-05-10T06:22:36.929Z,13.57
2023-05-10T06:23:38.942Z,13.90
2023-05-10T06:24:40.980Z,14.48
2023-05-10T06:25:42.955Z,13.40
2023-05-10T06:26:45.001Z,14.13
2023-05-10T06:27:50.428Z,13.70
2023-05-10T06:28:54.851Z,14.02
2023-05-10T06:30:09.169Z,13.93
2023-05-10T06:31:14.922Z,14.80
2023-05-10T06:32:17.118Z,14.80
2023-05-10T06:33:19.126Z,14.32
2023-05-10T06:34:21.146Z,14.45
2023-05-10T06:35:23.451Z,14.25
2023-05-10T06:36:27.450Z,13.47
2023-05-10T06:37:29.621Z,14.15
2023-05-10T06:38:31.807Z,14.65
2023-05-10T06:39:33.788Z,14.73
2023-05-10T06:40:37.002Z,13.98
2023-05-10T06:41:39.098Z,14.18
2023-05-10T06:42:43.376Z,14.25
2023-05-10T06:43:45.514Z,14.82
2023-05-10T06:44:47.654Z,14.20
2023-05-10T06:45:50.250Z,14.80
2023-05-10T06:46:53.661Z,14.13
2023-05-10T06:47:55.826Z,14.07
2023-05-10T06:48:58.008Z,13.85
2023-05-10T06:50:00.200Z,13.63
2023-05-10T06:51:02.412Z,15.40
2023-05-10T06:52:04.527Z,14.13
2023-05-10T06:53:06.574Z,14.73
2023-05-10T06:54:08.571Z,14.80
2023-05-10T06:55:11.048Z,15.27
2023-05-10T06:56:13.047Z,14.70
2023-05-10T06:57:27.631Z,15.50
2023-05-10T06:58:33.875Z,14.57
2023-05-10T06:59:37.250Z,14.57
2023-05-10T07:00:41.656Z,14.65
2023-05-10T07:01:44.073Z,15.13
2023-05-10T07:02:46.217Z,14.57
2023-05-10T07:03:48.420Z,15.55
2023-05-10T07:04:50.503Z,15.32
2023-05-10T07:05:52.541Z,16.35
2023-05-10T07:06:54.634Z,15.30
2023-05-10T07:07:56.717Z,15.27
2023-05-10T07:08:58.867Z,15.18
2023-05-10T07:10:01.473Z,15.68
2023-05-10T07:11:11.695Z,15.43
2023-05-10T07:12:15.302Z,15.98
2023-05-10T07:13:17.913Z,15.02
2023-05-10T07:14:20.665Z,15.98
2023-05-10T07:15:22.958Z,16.30
2023-05-10T07:16:25.241Z,16.00
2023-05-10T07:17:27.636Z,15.80
2023-05-10T07:18:29.878Z,16.53
2023-05-10T07:19:33.622Z,17.58
2023-05-10T07:20:35.794Z,16.50
2023-05-10T07:21:38.553Z,17.48
2023-05-10T07:22:40.667Z,17.67
2023-05-10T07:23:44.953Z,16.45
2023-05-10T07:24:47.275Z,16.85
2023-05-10T07:25:50.684Z,18.00
2023-05-10T07:26:52.828Z,16.92
2023-05-10T07:27:54.953Z,17.27
2023-05-10T07:28:57.028Z,16.10
2023-05-10T07:29:59.702Z,16.33
2023-05-10T07:31:01.937Z,17.13
2023-05-10T07:32:44.698Z,17.17
2023-05-10T07:34:06.652Z,17.40
2023-05-10T07:35:21.801Z,16.42
2023-05-10T07:36:23.854Z,17.67
2023-05-10T07:37:26.031Z,18.38
2023-05-10T07:38:28.090Z,18.02
2023-05-10T07:39:30.202Z,18.75
2023-05-10T07:40:32.741Z,18.90
2023-05-10T07:41:35.867Z,18.48
2023-05-10T07:42:38.177Z,19.52
2023-05-10T07:43:41.023Z,19.42
2023-05-10T07:44:43.278Z,18.73
2023-05-10T07:45:45.346Z,19.08
2023-05-10T07:46:48.957Z,19.20
2023-05-10T07:47:51.388Z,19.35
2023-05-10T07:48:53.381Z,19.05
2023-05-10T07:49:55.336Z,18.63
2023-05-10T07:50:57.473Z,18.90
2023-05-10T07:51:59.520Z,18.88
2023-05-10T07:53:01.612Z,19.30
2023-05-10T07:54:03.765Z,18.73
2023-05-10T07:55:06.497Z,19.95
2023-05-10T07:56:30.673Z,19.95
2023-05-10T07:57:32.806Z,19.52
2023-05-10T07:58:35.873Z,19.92
2023-05-10T07:59:37.966Z,20.23
2023-05-10T08:00:40.711Z,19.88
2023-05-10T08:01:43.786Z,18.43
2023-05-10T08:02:46.080Z,19.20
2023-05-10T08:03:48.327Z,19.65
2023-05-10T08:04:50.581Z,19.50
2023-05-10T08:05:53.063Z,20.33
2023-05-10T08:06:55.180Z,19.80
2023-05-10T08:07:57.199Z,19.30
2023-05-10T08:08:59.358Z,18.83
2023-05-10T08:10:01.754Z,19.85
2023-05-10T08:11:04.758Z,19.23
2023-05-10T08:12:07.290Z,18.77
2023-05-10T08:13:09.414Z,18.92
2023-05-10T08:14:11.470Z,18.58
2023-05-10T08:15:13.720Z,19.05
2023-05-10T08:16:16.685Z,20.05
2023-05-10T08:17:19.927Z,20.40
2023-05-10T08:18:22.683Z,20.73
2023-05-10T08:19:25.030Z,19.10
2023-05-10T08:20:27.097Z,19.70
2023-05-10T08:21:29.258Z,20.42
2023-05-10T08:22:31.303Z,20.50
2023-05-10T08:23:33.646Z,20.50
2023-05-10T08:24:39.306Z,20.48
2023-05-10T08:25:41.510Z,20.60
2023-05-10T08:26:43.617Z,20.30
2023-05-10T08:27:45.806Z,20.95
2023-05-10T08:28:47.849Z,20.33
2023-05-10T08:29:50.715Z,18.95
2023-05-10T08:30:53.308Z,21.38
2023-05-10T08:31:55.871Z,20.27
2023-05-10T08:32:58.005Z,20.63
2023-05-10T08:34:00.178Z,21.40
2023-05-10T08:35:02.391Z,21.27
2023-05-10T08:36:04.510Z,20.48
2023-05-10T08:37:06.584Z,20.83
2023-05-10T08:38:08.996Z,21.20
2023-05-10T08:39:22.927Z,21.92
2023-05-10T08:40:31.910Z,21.50
2023-05-10T08:41:35.104Z,21.33
2023-05-10T08:42:41.239Z,19.67
2023-05-10T08:43:47.336Z,21.27
2023-05-10T08:44:50.514Z,20.88
2023-05-10T08:45:55.404Z,19.95
2023-05-10T08:47:39.243Z,21.02
2023-05-10T08:48:42.256Z,19.90
2023-05-10T08:49:49.066Z,20.63
2023-05-10T08:50:55.965Z,21.48
2023-05-10T08:51:58.791Z,20.98
2023-05-10T08:53:04.956Z,21.52
2023-05-10T08:54:07.487Z,20.73
2023-05-10T08:55:09.872Z,20.60
2023-05-10T08:56:12.820Z,22.33
2023-05-10T08:57:15.065Z,21.65
2023-05-10T08:58:17.173Z,21.25
2023-05-10T08:59:19.302Z,20.02
2023-05-10T09:00:23.917Z,21.35
2023-05-10T09:01:28.061Z,20.45
2023-05-10T09:02:30.255Z,20.63
2023-05-10T09:03:33.430Z,18.77
2023-05-10T09:04:35.504Z,17.52
2023-05-10T09:05:38.328Z,17.57
2023-05-10T09:06:40.886Z,18.95
2023-05-10T09:07:43.195Z,19.55
2023-05-10T09:08:46.884Z,19.45
2023-05-10T09:09:49.551Z,18.02
2023-05-10T09:10:51.591Z,18.25
2023-05-10T09:11:54.712Z,19.67
2023-05-10T09:13:00.131Z,19.10
2023-05-10T09:14:03.336Z,20.25
2023-05-10T09:15:06.818Z,19.88
2023-05-10T09:16:20.510Z,20.37
2023-05-10T09:17:26.527Z,19.95
2023-05-10T09:18:28.747Z,20.50
2023-05-10T09:19:30.872Z,20.83
2023-05-10T09:20:32.898Z,21.77
2023-05-10T09:21:37.757Z,22.15
2023-05-10T09:22:39.920Z,22.00
2023-05-10T09:23:51.284Z,22.15
2023-05-10T09:25:10.715Z,20.67
2023-05-10T09:26:12.902Z,21.77
2023-05-10T09:27:14.900Z,21.37
2023-05-10T09:28:16.965Z,20.98
2023-05-10T09:29:19.145Z,20.17
2023-05-10T09:30:31.945Z,20.83
2023-05-10T09:31:55.642Z,21.02
2023-05-10T09:32:59.595Z,20.17
2023-05-10T09:34:01.714Z,22.25
2023-05-10T09:35:11.560Z,24.23
2023-05-10T09:36:14.319Z,20.95
2023-05-10T09:37:16.333Z,21.15
2023-05-10T09:38:18.377Z,17.77
2023-05-10T09:39:20.741Z,18.40
2023-05-10T09:40:25.239Z,17.85
2023-05-10T09:41:29.190Z,18.73
2023-05-10T09:42:31.230Z,17.15
2023-05-10T09:43:39.299Z,17.48
2023-05-10T09:44:42.031Z,18.08
2023-05-10T09:45:44.113Z,18.05
2023-05-10T09:46:51.138Z,17.50
2023-05-10T09:47:53.586Z,17.88
2023-05-10T09:48:55.610Z,17.97
2023-05-10T09:50:04.092Z,19.13
2023-05-10T09:51:06.233Z,19.20
2023-05-10T09:52:09.038Z,19.00
2023-05-10T09:53:16.780Z,17.90
2023-05-10T09:54:19.179Z,19.15
2023-05-10T09:55:23.156Z,18.73
2023-05-10T09:56:39.923Z,19.38
2023-05-10T09:57:42.138Z,18.30
2023-05-10T09:58:44.265Z,20.60
2023-05-10T09:59:46.433Z,19.10
2023-05-10T10:00:52.357Z,18.95
2023-05-10T10:02:01.773Z,19.27
2023-05-10T10:03:04.676Z,19.90
2023-05-10T10:04:08.455Z,19.77
2023-05-10T10:05:12.631Z,19.95
2023-05-10T10:06:29.519Z,20.58
2023-05-10T10:07:32.745Z,20.05
2023-05-10T10:08:35.401Z,21.08
2023-05-10T10:09:37.421Z,20.65
2023-05-10T10:10:41.498Z,19.80
2023-05-10T10:11:43.749Z,19.58
2023-05-10T10:12:45.909Z,19.98
2023-05-10T10:13:48.164Z,20.67
2023-05-10T10:14:51.502Z,20.50
2023-05-10T10:15:55.346Z,17.67
2023-05-10T10:17:07.757Z,18.10
2023-05-10T10:18:14.787Z,18.52
2023-05-10T10:19:16.848Z,18.52
2023-05-10T10:20:20.783Z,18.95
2023-05-10T10:21:23.807Z,18.40
2023-05-10T10:22:26.014Z,19.02
2023-05-10T10:23:28.854Z,19.30
2023-05-10T10:24:30.884Z,18.95
2023-05-10T10:25:33.351Z,18.73
2023-05-10T10:26:39.435Z,17.67
2023-05-10T10:27:42.468Z,18.02
2023-05-10T10:29:09.098Z,18.80
2023-05-10T10:30:36.108Z,17.00
2023-05-10T10:31:46.401Z,16.50
2023-05-10T10:32:54.361Z,17.80
2023-05-10T10:34:07.957Z,17.75
2023-05-10T10:35:10.558Z,18.67
2023-05-10T10:36:14.024Z,17.95
2023-05-10T10:37:16.179Z,19.38
2023-05-10T10:38:18.486Z,19.50
2023-05-10T10:39:21.764Z,17.85
2023-05-10T10:40:26.802Z,16.73
2023-05-10T10:41:37.006Z,18.35
2023-05-10T10:42:47.010Z,18.00
2023-05-10T10:43:49.123Z,16.90
2023-05-10T10:45:11.069Z,17.75
2023-05-10T10:46:15.679Z,18.15
2023-05-10T10:47:24.414Z,19.20
2023-05-10T10:48:27.109Z,18.80
2023-05-10T10:49:29.572Z,19.48
2023-05-10T10:50:31.547Z,19.48
2023-05-10T10:51:33.675Z,19.90
2023-05-10T10:52:46.467Z,19.02
2023-05-10T10:53:49.601Z,19.35
2023-05-10T10:55:02.969Z,16.03
2023-05-10T10:56:14.624Z,15.95
2023-05-10T10:57:18.967Z,16.67
2023-05-10T10:58:32.886Z,17.65
2023-05-10T10:59:35.014Z,15.98
2023-05-10T11:00:38.635Z,16.35
2023-05-10T11:01:45.410Z,16.33
2023-05-10T11:02:51.374Z,17.40
2023-05-10T11:04:20.098Z,16.13
2023-05-10T11:05:37.153Z,17.02
2023-05-10T11:06:39.162Z,16.07
2023-05-10T11:07:53.897Z,15.85
2023-05-10T11:08:56.164Z,16.35
2023-05-10T11:10:06.329Z,16.80
2023-05-10T11:11:09.026Z,16.95
2023-05-10T11:12:11.120Z,16.77
2023-05-10T11:13:13.288Z,15.63
2023-05-10T11:14:15.410Z,16.10
2023-05-10T11:15:17.791Z,15.93
2023-05-10T11:16:21.081Z,15.98
2023-05-10T11:17:28.557Z,15.37
2023-05-10T11:18:31.690Z,15.75
2023-05-10T11:19:33.828Z,16.48
2023-05-10T11:20:42.226Z,16.30
2023-05-10T11:21:49.710Z,16.08
2023-05-10T11:22:53.209Z,14.38
2023-05-10T11:23:57.837Z,15.40
2023-05-10T11:25:00.254Z,15.05
2023-05-10T11:26:02.589Z,14.55
2023-05-10T11:27:04.853Z,14.35
2023-05-10T11:28:07.778Z,14.07
2023-05-10T11:29:09.962Z,14.10
2023-05-10T11:30:12.954Z,14.15
2023-05-10T11:31:17.172Z,13.35
2023-05-10T11:32:20.899Z,12.90
2023-05-10T11:33:23.196Z,14.02
2023-05-10T11:34:36.565Z,13.20
2023-05-10T11:35:43.043Z,13.10
2023-05-10T11:36:52.756Z,11.50
2023-05-10T11:37:54.864Z,10.68
2023-05-10T11:38:57.903Z,11.47
2023-05-10T11:39:59.925Z,11.38
2023-05-10T11:42:21.597Z,11.13
2023-05-10T11:43:29.222Z,11.63
2023-05-10T11:44:34.576Z,11.23
2023-05-10T11:45:36.990Z,10.57
2023-05-10T11:46:39.164Z,11.98
2023-05-10T11:47:43.490Z,11.43
2023-05-10T11:48:45.656Z,10.88
2023-05-10T11:49:49.131Z,11.33
2023-05-10T11:50:51.583Z,10.88
2023-05-10T11:51:53.641Z,9.52
2023-05-10T11:52:59.849Z,10.38
2023-05-10T11:54:01.930Z,9.98
2023-05-10T11:55:04.167Z,9.15
2023-05-10T11:56:12.558Z,8.27
2023-05-10T11:57:14.602Z,8.23
2023-05-10T11:58:16.567Z,8.80
2023-05-10T11:59:18.603Z,9.05
2023-05-10T12:00:20.980Z,8.27
2023-05-10T12:01:24.503Z,7.90
2023-05-10T12:02:26.883Z,9.02
2023-05-10T12:03:29.703Z,8.05
2023-05-10T12:04:32.525Z,8.32
2023-05-10T12:05:35.176Z,8.45
2023-05-10T12:06:41.819Z,9.32
2023-05-10T12:07:43.956Z,8.90
2023-05-10T12:08:48.423Z,10.02
2023-05-10T12:10:11.220Z,8.82
2023-05-10T12:11:16.425Z,8.60
2023-05-10T12:12:18.517Z,7.95
2023-05-10T12:13:22.090Z,7.93
2023-05-10T12:14:25.445Z,8.23
2023-05-10T12:15:29.047Z,7.97
2023-05-10T12:16:31.210Z,8.40
2023-05-10T12:17:33.604Z,8.68
2023-05-10T12:18:35.812Z,8.32
2023-05-10T12:19:42.241Z,8.98
2023-05-10T12:20:44.348Z,8.70
2023-05-10T12:21:46.360Z,7.93
2023-05-10T12:22:52.932Z,8.07
2023-05-10T12:23:59.918Z,7.43
2023-05-10T12:25:01.966Z,7.50
2023-05-10T12:26:07.511Z,6.95
2023-05-10T12:27:09.911Z,6.60
2023-05-10T12:28:11.924Z,7.18
2023-05-10T12:29:21.320Z,7.80
2023-05-10T12:30:25.427Z,6.63
2023-05-10T12:31:27.684Z,7.07
2023-05-10T12:32:43.318Z,7.67
2023-05-10T12:33:46.447Z,7.57
2023-05-10T12:34:49.104Z,6.75
2023-05-10T12:35:55.753Z,6.88
2023-05-10T12:36:58.087Z,6.80
2023-05-10T12:38:00.275Z,6.97
2023-05-10T12:39:05.909Z,7.57
2023-05-10T12:40:10.348Z,7.10
2023-05-10T12:41:14.117Z,6.88
2023-05-10T12:42:16.206Z,7.45
2023-05-10T12:43:18.274Z,7.23
2023-05-10T12:44:20.570Z,7.63
2023-05-10T12:45:23.144Z,7.57
2023-05-10T12:46:26.347Z,7.25
2023-05-10T12:47:28.555Z,6.90
2023-05-10T12:48:32.137Z,7.28
2023-05-10T12:49:35.042Z,6.47
2023-05-10T12:50:37.296Z,6.22
2023-05-10T12:51:39.279Z,6.40
2023-05-10T12:52:41.345Z,6.90
2023-05-10T12:53:46.077Z,6.87
2023-05-10T12:54:50.219Z,6.80
2023-05-10T12:55:52.308Z,6.35
2023-05-10T12:56:54.352Z,6.35
2023-05-10T12:57:56.359Z,6.10
2023-05-10T12:58:58.388Z,5.97
2023-05-10T13:00:00.670Z,6.15
2023-05-10T13:01:03.243Z,6.30
2023-05-10T13:02:06.121Z,5.78
2023-05-10T13:03:08.115Z,5.60
2023-05-10T13:04:10.209Z,5.90
2023-05-10T13:05:14.270Z,5.57
2023-05-10T13:06:16.322Z,6.10
2023-05-10T13:07:18.369Z,6.45
2023-05-10T13:08:20.561Z,6.40
2023-05-10T13:09:22.711Z,6.22
2023-05-10T13:10:24.987Z,5.95
2023-05-10T13:11:27.062Z,5.90
2023-05-10T13:12:29.157Z,5.32
2023-05-10T13:13:31.209Z,4.80
2023-05-10T13:14:33.292Z,5.20
2023-05-10T13:15:35.784Z,5.00
2023-05-10T13:16:37.990Z,5.00
2023-05-10T13:17:41.937Z,4.63
2023-05-10T13:18:44.067Z,4.22
2023-05-10T13:19:46.138Z,4.70
2023-05-10T13:20:48.256Z,4.65
2023-05-10T13:22:02.505Z,4.35
2023-05-10T13:23:04.620Z,4.47
2023-05-10T13:24:06.729Z,4.63
2023-05-10T13:25:09.598Z,4.30
2023-05-10T13:26:11.574Z,4.43
2023-05-10T13:27:13.773Z,4.60
2023-05-10T13:28:15.952Z,4.95
2023-05-10T13:29:19.230Z,4.30
2023-05-10T13:30:21.531Z,4.18
2023-05-10T13:31:23.511Z,4.40
2023-05-10T13:32:25.724Z,4.50
2023-05-10T13:33:27.777Z,4.40
2023-05-10T13:34:29.845Z,4.47
2023-05-10T13:35:31.904Z,5.03
2023-05-10T13:36:33.962Z,5.32
2023-05-10T13:37:38.318Z,4.60
2023-05-10T13:38:40.343Z,5.00
2023-05-10T13:39:42.483Z,4.78
2023-05-10T13:40:44.506Z,4.80
2023-05-10T13:41:46.509Z,4.78
2023-05-10T13:42:48.450Z,4.70
2023-05-10T13:43:50.595Z,4.72
2023-05-10T13:44:52.638Z,5.50
2023-05-10T13:45:54.776Z,16.53
2023-05-10T13:46:57.747Z,5.82
2023-05-10T13:48:00.160Z,6.30
2023-05-10T13:49:03.010Z,6.03
2023-05-10T13:50:05.500Z,6.40
2023-05-10T13:51:07.583Z,14.82
2023-05-10T13:52:11.161Z,8.18
2023-05-10T13:53:13.583Z,15.88
2023-05-10T13:54:15.734Z,6.90
2023-05-10T13:55:18.162Z,6.90
2023-05-10T13:56:20.446Z,6.93
2023-05-10T13:57:23.017Z,6.80
2023-05-10T13:58:25.492Z,7.18
2023-05-10T13:59:27.503Z,6.53